sensor_id;sensor_type;location;lat;lon;timestamp;P1;durP1;ratioP1;P2;durP2;ratioP2
7150;SDS011;3617;48.836;9.172;2023-09-19T00:01:12;0.70;;;0.70;;
7150;SDS011;3617;48.836;9.172;2023-09-19T00:03:39;0.70;;;0.60;;
7150;SDS011;3617;48.836;9.172;2023-09-19T00:06:06;1.03;;;0.50;;
7150;SDS011;3617;48.836;9.172;2023-09-19T00:08:33;1.70;;;0.70;;
7150;SDS011;3617;48.836;9.172;2023-09-19T00:10:59;1.15;;;0.60;;
7150;SDS011;3617;48.836;9.172;2023-09-19T00:13:30;0.90;;;0.67;;
7150;SDS011;3617;48.836;9.172;2023-09-19T00:15:56;0.50;;;0.47;;
7150;SDS011;3617;48.836;9.172;2023-09-19T00:18:24;0.50;;;0.50;;
7150;SDS011;3617;48.836;9.172;2023-09-19T00:20:53;0.60;;;0.60;;
7150;SDS011;3617;48.836;9.172;2023-09-19T00:23:22;1.70;;;0.60;;
7150;SDS011;3617;48.836;9.172;2023-09-19T00:25:49;0.93;;;0.60;;
7150;SDS011;3617;48.836;9.172;2023-09-19T00:28:16;0.40;;;0.40;;
7150;SDS011;3617;48.836;9.172;2023-09-19T00:30:43;0.70;;;0.60;;
7150;SDS011;3617;48.836;9.172;2023-09-19T00:33:10;0.77;;;0.70;;
7150;SDS011;3617;48.836;9.172;2023-09-19T00:35:46;1.05;;;0.68;;
7150;SDS011;3617;48.836;9.172;2023-09-19T00:38:12;0.50;;;0.50;;
7150;SDS011;3617;48.836;9.172;2023-09-19T00:40:43;0.73;;;0.47;;
7150;SDS011;3617;48.836;9.172;2023-09-19T00:43:09;0.98;;;0.65;;
7150;SDS011;3617;48.836;9.172;2023-09-19T00:45:35;0.60;;;0.50;;
7150;SDS011;3617;48.836;9.172;2023-09-19T00:48:03;1.27;;;0.77;;
7150;SDS011;3617;48.836;9.172;2023-09-19T00:50:31;0.50;;;0.50;;
7150;SDS011;3617;48.836;9.172;2023-09-19T00:52:58;0.67;;;0.63;;
7150;SDS011;3617;48.836;9.172;2023-09-19T00:55:24;5.05;;;0.95;;
7150;SDS011;3617;48.836;9.172;2023-09-19T00:57:50;0.70;;;0.65;;
7150;SDS011;3617;48.836;9.172;2023-09-19T01:00:17;1.75;;;0.55;;
7150;SDS011;3617;48.836;9.172;2023-09-19T01:02:45;1.25;;;0.70;;
7150;SDS011;3617;48.836;9.172;2023-09-19T01:05:11;0.60;;;0.60;;
7150;SDS011;3617;48.836;9.172;2023-09-19T01:07:37;1.38;;;0.80;;
7150;SDS011;3617;48.836;9.172;2023-09-19T01:10:05;0.50;;;0.50;;
7150;SDS011;3617;48.836;9.172;2023-09-19T01:12:57;0.60;;;0.60;;
7150;SDS011;3617;48.836;9.172;2023-09-19T01:15:29;1.02;;;0.70;;
7150;SDS011;3617;48.836;9.172;2023-09-19T01:23:20;0.85;;;0.68;;
7150;SDS011;3617;48.836;9.172;2023-09-19T01:31:08;2.75;;;0.60;;
7150;SDS011;3617;48.836;9.172;2023-09-19T01:34:08;1.17;;;0.67;;
7150;SDS011;3617;48.836;9.172;2023-09-19T01:36:32;0.60;;;0.60;;
7150;SDS011;3617;48.836;9.172;2023-09-19T01:39:00;0.73;;;0.57;;
7150;SDS011;3617;48.836;9.172;2023-09-19T01:44:18;0.60;;;0.60;;
7150;SDS011;3617;48.836;9.172;2023-09-19T01:46:46;0.70;;;0.50;;
7150;SDS011;3617;48.836;9.172;2023-09-19T01:49:18;0.60;;;0.60;;
7150;SDS011;3617;48.836;9.172;2023-09-19T01:54:26;1.97;;;0.60;;
7150;SDS011;3617;48.836;9.172;2023-09-19T01:57:04;0.57;;;0.57;;
7150;SDS011;3617;48.836;9.172;2023-09-19T01:59:35;0.60;;;0.47;;
7150;SDS011;3617;48.836;9.172;2023-09-19T02:02:03;0.50;;;0.50;;
7150;SDS011;3617;48.836;9.172;2023-09-19T02:04:30;0.50;;;0.50;;
7150;SDS011;3617;48.836;9.172;2023-09-19T02:06:58;0.80;;;0.60;;
7150;SDS011;3617;48.836;9.172;2023-09-19T02:09:24;0.70;;;0.50;;
7150;SDS011;3617;48.836;9.172;2023-09-19T02:11:51;1.07;;;0.70;;
7150;SDS011;3617;48.836;9.172;2023-09-19T02:14:17;1.07;;;0.80;;
7150;SDS011;3617;48.836;9.172;2023-09-19T02:16:44;0.77;;;0.60;;
7150;SDS011;3617;48.836;9.172;2023-09-19T02:19:10;1.02;;;0.60;;
7150;SDS011;3617;48.836;9.172;2023-09-19T02:21:37;1.60;;;0.60;;
7150;SDS011;3617;48.836;9.172;2023-09-19T02:24:05;0.73;;;0.50;;
7150;SDS011;3617;48.836;9.172;2023-09-19T02:26:33;0.80;;;0.80;;
7150;SDS011;3617;48.836;9.172;2023-09-19T02:29:00;0.53;;;0.53;;
7150;SDS011;3617;48.836;9.172;2023-09-19T02:31:29;0.83;;;0.77;;
7150;SDS011;3617;48.836;9.172;2023-09-19T02:33:55;0.73;;;0.70;;
7150;SDS011;3617;48.836;9.172;2023-09-19T02:36:21;0.67;;;0.60;;
7150;SDS011;3617;48.836;9.172;2023-09-19T02:38:48;0.70;;;0.70;;
7150;SDS011;3617;48.836;9.172;2023-09-19T02:41:14;1.08;;;0.63;;
7150;SDS011;3617;48.836;9.172;2023-09-19T02:43:40;0.60;;;0.60;;
7150;SDS011;3617;48.836;9.172;2023-09-19T02:46:07;0.67;;;0.53;;
7150;SDS011;3617;48.836;9.172;2023-09-19T02:48:34;0.63;;;0.60;;
7150;SDS011;3617;48.836;9.172;2023-09-19T02:51:01;0.40;;;0.40;;
7150;SDS011;3617;48.836;9.172;2023-09-19T02:53:28;1.20;;;0.77;;
7150;SDS011;3617;48.836;9.172;2023-09-19T02:55:56;0.50;;;0.50;;
7150;SDS011;3617;48.836;9.172;2023-09-19T02:58:23;0.63;;;0.60;;
7150;SDS011;3617;48.836;9.172;2023-09-19T03:00:52;2.15;;;0.52;;
7150;SDS011;3617;48.836;9.172;2023-09-19T03:03:20;1.30;;;0.70;;
7150;SDS011;3617;48.836;9.172;2023-09-19T03:05:46;1.02;;;0.60;;
7150;SDS011;3617;48.836;9.172;2023-09-19T03:08:13;0.90;;;0.70;;
7150;SDS011;3617;48.836;9.172;2023-09-19T03:10:40;0.50;;;0.50;;
7150;SDS011;3617;48.836;9.172;2023-09-19T03:13:06;0.50;;;0.50;;
7150;SDS011;3617;48.836;9.172;2023-09-19T03:15:34;0.73;;;0.50;;
7150;SDS011;3617;48.836;9.172;2023-09-19T03:18:03;0.60;;;0.60;;
7150;SDS011;3617;48.836;9.172;2023-09-19T03:20:30;1.05;;;0.68;;
7150;SDS011;3617;48.836;9.172;2023-09-19T03:22:56;0.50;;;0.50;;
7150;SDS011;3617;48.836;9.172;2023-09-19T03:25:22;1.20;;;0.50;;
7150;SDS011;3617;48.836;9.172;2023-09-19T03:27:49;1.33;;;0.60;;
7150;SDS011;3617;48.836;9.172;2023-09-19T03:30:15;0.50;;;0.50;;
7150;SDS011;3617;48.836;9.172;2023-09-19T03:32:45;0.53;;;0.53;;
7150;SDS011;3617;48.836;9.172;2023-09-19T03:35:11;0.75;;;0.75;;
7150;SDS011;3617;48.836;9.172;2023-09-19T03:37:39;0.63;;;0.60;;
7150;SDS011;3617;48.836;9.172;2023-09-19T03:40:05;0.77;;;0.50;;
7150;SDS011;3617;48.836;9.172;2023-09-19T03:42:32;1.63;;;0.70;;
7150;SDS011;3617;48.836;9.172;2023-09-19T03:45:01;0.88;;;0.60;;
7150;SDS011;3617;48.836;9.172;2023-09-19T03:47:29;0.60;;;0.60;;
7150;SDS011;3617;48.836;9.172;2023-09-19T03:49:55;0.50;;;0.50;;
7150;SDS011;3617;48.836;9.172;2023-09-19T03:52:21;0.80;;;0.53;;
7150;SDS011;3617;48.836;9.172;2023-09-19T03:54:47;0.90;;;0.50;;
7150;SDS011;3617;48.836;9.172;2023-09-19T03:57:14;0.50;;;0.50;;
7150;SDS011;3617;48.836;9.172;2023-09-19T03:59:42;0.60;;;0.60;;
7150;SDS011;3617;48.836;9.172;2023-09-19T04:02:08;1.20;;;0.60;;
7150;SDS011;3617;48.836;9.172;2023-09-19T04:04:38;0.80;;;0.70;;
7150;SDS011;3617;48.836;9.172;2023-09-19T04:07:04;0.80;;;0.60;;
7150;SDS011;3617;48.836;9.172;2023-09-19T04:09:30;0.40;;;0.40;;
7150;SDS011;3617;48.836;9.172;2023-09-19T04:11:56;1.00;;;0.63;;
7150;SDS011;3617;48.836;9.172;2023-09-19T04:14:22;0.70;;;0.70;;
7150;SDS011;3617;48.836;9.172;2023-09-19T04:16:48;3.30;;;0.70;;
7150;SDS011;3617;48.836;9.172;2023-09-19T04:19:14;1.00;;;0.70;;
7150;SDS011;3617;48.836;9.172;2023-09-19T04:21:40;2.40;;;0.70;;
7150;SDS011;3617;48.836;9.172;2023-09-19T04:24:06;1.10;;;0.73;;
7150;SDS011;3617;48.836;9.172;2023-09-19T04:26:32;1.20;;;0.80;;
7150;SDS011;3617;48.836;9.172;2023-09-19T04:28:58;0.80;;;0.70;;
7150;SDS011;3617;48.836;9.172;2023-09-19T04:31:24;1.57;;;0.87;;
7150;SDS011;3617;48.836;9.172;2023-09-19T04:33:50;1.17;;;0.80;;
7150;SDS011;3617;48.836;9.172;2023-09-19T04:36:15;1.40;;;0.90;;
7150;SDS011;3617;48.836;9.172;2023-09-19T04:38:41;1.83;;;0.80;;
7150;SDS011;3617;48.836;9.172;2023-09-19T04:41:07;2.27;;;1.00;;
7150;SDS011;3617;48.836;9.172;2023-09-19T04:43:33;1.00;;;0.80;;
7150;SDS011;3617;48.836;9.172;2023-09-19T04:45:59;1.30;;;0.83;;
7150;SDS011;3617;48.836;9.172;2023-09-19T04:48:25;1.23;;;1.00;;
7150;SDS011;3617;48.836;9.172;2023-09-19T04:50:51;1.13;;;0.87;;
7150;SDS011;3617;48.836;9.172;2023-09-19T04:53:18;1.07;;;0.90;;
7150;SDS011;3617;48.836;9.172;2023-09-19T04:55:49;0.73;;;0.73;;
7150;SDS011;3617;48.836;9.172;2023-09-19T04:58:15;1.43;;;0.90;;
7150;SDS011;3617;48.836;9.172;2023-09-19T05:00:41;1.43;;;0.80;;
7150;SDS011;3617;48.836;9.172;2023-09-19T05:03:08;2.03;;;0.80;;
7150;SDS011;3617;48.836;9.172;2023-09-19T05:05:34;0.80;;;0.80;;
7150;SDS011;3617;48.836;9.172;2023-09-19T05:08:00;1.10;;;0.87;;
7150;SDS011;3617;48.836;9.172;2023-09-19T05:10:30;1.07;;;0.80;;
7150;SDS011;3617;48.836;9.172;2023-09-19T05:12:56;1.03;;;0.90;;
7150;SDS011;3617;48.836;9.172;2023-09-19T05:15:22;1.20;;;0.90;;
7150;SDS011;3617;48.836;9.172;2023-09-19T05:17:51;1.20;;;1.00;;
7150;SDS011;3617;48.836;9.172;2023-09-19T05:20:19;1.07;;;0.70;;
7150;SDS011;3617;48.836;9.172;2023-09-19T05:22:57;1.27;;;0.80;;
7150;SDS011;3617;48.836;9.172;2023-09-19T05:25:26;1.00;;;0.90;;
7150;SDS011;3617;48.836;9.172;2023-09-19T05:27:55;1.27;;;1.00;;
7150;SDS011;3617;48.836;9.172;2023-09-19T05:30:21;3.87;;;1.10;;
7150;SDS011;3617;48.836;9.172;2023-09-19T05:32:47;1.17;;;0.83;;
7150;SDS011;3617;48.836;9.172;2023-09-19T05:35:13;0.60;;;0.60;;
7150;SDS011;3617;48.836;9.172;2023-09-19T05:37:39;1.70;;;1.07;;
7150;SDS011;3617;48.836;9.172;2023-09-19T05:40:05;1.63;;;1.00;;
7150;SDS011;3617;48.836;9.172;2023-09-19T05:42:37;2.27;;;1.47;;
7150;SDS011;3617;48.836;9.172;2023-09-19T05:45:04;1.30;;;1.13;;
7150;SDS011;3617;48.836;9.172;2023-09-19T05:47:31;1.30;;;1.10;;
7150;SDS011;3617;48.836;9.172;2023-09-19T05:49:57;2.57;;;1.20;;
7150;SDS011;3617;48.836;9.172;2023-09-19T05:52:24;1.63;;;1.30;;
7150;SDS011;3617;48.836;9.172;2023-09-19T05:54:50;1.40;;;1.30;;
7150;SDS011;3617;48.836;9.172;2023-09-19T05:57:16;2.23;;;1.20;;
7150;SDS011;3617;48.836;9.172;2023-09-19T05:59:42;1.33;;;1.23;;
7150;SDS011;3617;48.836;9.172;2023-09-19T06:02:08;2.80;;;1.20;;
7150;SDS011;3617;48.836;9.172;2023-09-19T06:04:36;1.63;;;1.10;;
7150;SDS011;3617;48.836;9.172;2023-09-19T06:07:05;1.17;;;1.07;;
7150;SDS011;3617;48.836;9.172;2023-09-19T06:09:31;1.63;;;1.10;;
7150;SDS011;3617;48.836;9.172;2023-09-19T06:11:58;1.17;;;1.07;;
7150;SDS011;3617;48.836;9.172;2023-09-19T06:14:28;2.23;;;1.20;;
7150;SDS011;3617;48.836;9.172;2023-09-19T06:16:55;0.83;;;0.83;;
7150;SDS011;3617;48.836;9.172;2023-09-19T06:19:21;1.73;;;1.40;;
7150;SDS011;3617;48.836;9.172;2023-09-19T06:21:51;3.33;;;1.40;;
7150;SDS011;3617;48.836;9.172;2023-09-19T06:24:18;4.87;;;1.60;;
7150;SDS011;3617;48.836;9.172;2023-09-19T06:26:46;2.63;;;1.20;;
7150;SDS011;3617;48.836;9.172;2023-09-19T06:29:12;3.03;;;1.40;;
7150;SDS011;3617;48.836;9.172;2023-09-19T06:31:39;2.67;;;1.60;;
7150;SDS011;3617;48.836;9.172;2023-09-19T06:34:05;1.63;;;1.40;;
7150;SDS011;3617;48.836;9.172;2023-09-19T06:36:32;1.50;;;1.13;;
7150;SDS011;3617;48.836;9.172;2023-09-19T06:38:57;2.83;;;1.60;;
7150;SDS011;3617;48.836;9.172;2023-09-19T06:41:24;2.10;;;1.10;;
7150;SDS011;3617;48.836;9.172;2023-09-19T06:43:50;2.00;;;1.43;;
7150;SDS011;3617;48.836;9.172;2023-09-19T06:46:18;2.43;;;1.20;;
7150;SDS011;3617;48.836;9.172;2023-09-19T06:48:44;1.93;;;1.70;;
7150;SDS011;3617;48.836;9.172;2023-09-19T06:51:12;2.63;;;1.90;;
7150;SDS011;3617;48.836;9.172;2023-09-19T06:53:40;2.83;;;1.60;;
7150;SDS011;3617;48.836;9.172;2023-09-19T06:56:06;3.63;;;1.60;;
7150;SDS011;3617;48.836;9.172;2023-09-19T06:58:32;2.30;;;1.50;;
7150;SDS011;3617;48.836;9.172;2023-09-19T07:01:01;2.27;;;1.50;;
7150;SDS011;3617;48.836;9.172;2023-09-19T07:03:28;1.70;;;1.50;;
7150;SDS011;3617;48.836;9.172;2023-09-19T07:05:54;2.03;;;1.30;;
7150;SDS011;3617;48.836;9.172;2023-09-19T07:08:21;1.50;;;1.30;;
7150;SDS011;3617;48.836;9.172;2023-09-19T07:10:47;1.80;;;1.30;;
7150;SDS011;3617;48.836;9.172;2023-09-19T07:13:13;2.33;;;1.57;;
7150;SDS011;3617;48.836;9.172;2023-09-19T07:15:42;1.57;;;1.40;;
7150;SDS011;3617;48.836;9.172;2023-09-19T07:18:12;3.63;;;1.50;;
7150;SDS011;3617;48.836;9.172;2023-09-19T07:20:39;1.17;;;1.07;;
7150;SDS011;3617;48.836;9.172;2023-09-19T07:23:13;1.67;;;0.93;;
7150;SDS011;3617;48.836;9.172;2023-09-19T07:25:40;3.90;;;1.40;;
7150;SDS011;3617;48.836;9.172;2023-09-19T07:28:06;2.13;;;1.20;;
7150;SDS011;3617;48.836;9.172;2023-09-19T07:30:32;1.30;;;1.20;;
7150;SDS011;3617;48.836;9.172;2023-09-19T07:32:58;1.20;;;1.10;;
7150;SDS011;3617;48.836;9.172;2023-09-19T07:35:24;1.40;;;1.00;;
7150;SDS011;3617;48.836;9.172;2023-09-19T07:37:50;1.50;;;1.23;;
7150;SDS011;3617;48.836;9.172;2023-09-19T07:40:21;3.42;;;1.10;;
7150;SDS011;3617;48.836;9.172;2023-09-19T07:42:48;1.23;;;0.98;;
7150;SDS011;3617;48.836;9.172;2023-09-19T07:45:15;2.45;;;1.27;;
7150;SDS011;3617;48.836;9.172;2023-09-19T07:47:48;2.08;;;1.10;;
7150;SDS011;3617;48.836;9.172;2023-09-19T07:50:15;2.25;;;1.00;;
7150;SDS011;3617;48.836;9.172;2023-09-19T07:52:43;2.05;;;1.10;;
7150;SDS011;3617;48.836;9.172;2023-09-19T07:55:09;2.00;;;0.90;;
7150;SDS011;3617;48.836;9.172;2023-09-19T07:57:42;1.23;;;0.98;;
7150;SDS011;3617;48.836;9.172;2023-09-19T08:00:08;2.08;;;0.93;;
7150;SDS011;3617;48.836;9.172;2023-09-19T08:02:37;0.90;;;0.90;;
7150;SDS011;3617;48.836;9.172;2023-09-19T08:05:04;1.90;;;0.90;;
7150;SDS011;3617;48.836;9.172;2023-09-19T08:07:31;0.70;;;0.70;;
7150;SDS011;3617;48.836;9.172;2023-09-19T08:09:57;1.25;;;0.80;;
7150;SDS011;3617;48.836;9.172;2023-09-19T08:12:24;1.05;;;0.93;;
7150;SDS011;3617;48.836;9.172;2023-09-19T08:14:50;0.80;;;0.68;;
7150;SDS011;3617;48.836;9.172;2023-09-19T08:17:16;1.95;;;0.88;;
7150;SDS011;3617;48.836;9.172;2023-09-19T08:19:41;3.60;;;0.90;;
7150;SDS011;3617;48.836;9.172;2023-09-19T08:22:10;1.00;;;0.80;;
7150;SDS011;3617;48.836;9.172;2023-09-19T08:24:36;1.55;;;0.82;;
7150;SDS011;3617;48.836;9.172;2023-09-19T08:27:03;1.95;;;0.75;;
7150;SDS011;3617;48.836;9.172;2023-09-19T08:29:30;0.77;;;0.70;;
7150;SDS011;3617;48.836;9.172;2023-09-19T08:31:57;2.05;;;0.70;;
7150;SDS011;3617;48.836;9.172;2023-09-19T08:34:24;0.90;;;0.80;;
7150;SDS011;3617;48.836;9.172;2023-09-19T08:36:53;0.82;;;0.80;;
7150;SDS011;3617;48.836;9.172;2023-09-19T08:39:23;1.05;;;0.80;;
7150;SDS011;3617;48.836;9.172;2023-09-19T08:41:57;1.77;;;0.90;;
7150;SDS011;3617;48.836;9.172;2023-09-19T08:44:24;1.90;;;0.80;;
7150;SDS011;3617;48.836;9.172;2023-09-19T08:46:49;0.93;;;0.80;;
7150;SDS011;3617;48.836;9.172;2023-09-19T08:49:27;0.93;;;0.60;;
7150;SDS011;3617;48.836;9.172;2023-09-19T08:52:07;1.23;;;0.88;;
7150;SDS011;3617;48.836;9.172;2023-09-19T08:54:35;1.67;;;1.00;;
7150;SDS011;3617;48.836;9.172;2023-09-19T08:57:04;1.48;;;0.70;;
7150;SDS011;3617;48.836;9.172;2023-09-19T08:59:33;1.92;;;0.80;;
7150;SDS011;3617;48.836;9.172;2023-09-19T09:02:00;1.02;;;0.80;;
7150;SDS011;3617;48.836;9.172;2023-09-19T09:04:26;2.13;;;0.85;;
7150;SDS011;3617;48.836;9.172;2023-09-19T09:06:53;2.17;;;0.90;;
7150;SDS011;3617;48.836;9.172;2023-09-19T09:09:20;1.55;;;0.80;;
7150;SDS011;3617;48.836;9.172;2023-09-19T09:11:48;0.80;;;0.80;;
7150;SDS011;3617;48.836;9.172;2023-09-19T09:14:18;0.73;;;0.63;;
7150;SDS011;3617;48.836;9.172;2023-09-19T09:16:44;0.93;;;0.80;;
7150;SDS011;3617;48.836;9.172;2023-09-19T09:19:10;1.02;;;0.82;;
7150;SDS011;3617;48.836;9.172;2023-09-19T09:21:38;1.02;;;0.85;;
7150;SDS011;3617;48.836;9.172;2023-09-19T09:26:50;2.83;;;0.77;;
7150;SDS011;3617;48.836;9.172;2023-09-19T09:29:18;1.00;;;0.90;;
7150;SDS011;3617;48.836;9.172;2023-09-19T09:32:16;1.75;;;1.00;;
7150;SDS011;3617;48.836;9.172;2023-09-19T09:34:43;1.13;;;0.80;;
7150;SDS011;3617;48.836;9.172;2023-09-19T09:37:12;1.63;;;0.80;;
7150;SDS011;3617;48.836;9.172;2023-09-19T09:39:40;0.68;;;0.68;;
7150;SDS011;3617;48.836;9.172;2023-09-19T09:42:06;2.15;;;0.70;;
7150;SDS011;3617;48.836;9.172;2023-09-19T09:44:32;0.75;;;0.70;;
7150;SDS011;3617;48.836;9.172;2023-09-19T09:46:58;0.88;;;0.77;;
7150;SDS011;3617;48.836;9.172;2023-09-19T09:49:47;1.17;;;0.75;;
7150;SDS011;3617;48.836;9.172;2023-09-19T09:52:19;1.02;;;0.80;;
7150;SDS011;3617;48.836;9.172;2023-09-19T09:55:02;1.30;;;0.90;;
7150;SDS011;3617;48.836;9.172;2023-09-19T09:57:32;0.75;;;0.70;;
7150;SDS011;3617;48.836;9.172;2023-09-19T09:59:59;0.80;;;0.57;;
7150;SDS011;3617;48.836;9.172;2023-09-19T10:02:41;1.13;;;0.68;;
7150;SDS011;3617;48.836;9.172;2023-09-19T10:05:17;1.55;;;0.85;;
7150;SDS011;3617;48.836;9.172;2023-09-19T10:07:50;1.90;;;0.70;;
7150;SDS011;3617;48.836;9.172;2023-09-19T10:13:16;1.95;;;1.13;;
7150;SDS011;3617;48.836;9.172;2023-09-19T10:15:43;1.67;;;0.68;;
7150;SDS011;3617;48.836;9.172;2023-09-19T10:18:34;1.45;;;0.93;;
7150;SDS011;3617;48.836;9.172;2023-09-19T10:21:03;1.58;;;0.90;;
7150;SDS011;3617;48.836;9.172;2023-09-19T10:23:32;2.10;;;0.90;;
7150;SDS011;3617;48.836;9.172;2023-09-19T10:25:59;1.10;;;0.70;;
7150;SDS011;3617;48.836;9.172;2023-09-19T10:28:27;4.35;;;0.88;;
7150;SDS011;3617;48.836;9.172;2023-09-19T10:30:53;0.85;;;0.60;;
7150;SDS011;3617;48.836;9.172;2023-09-19T10:33:24;0.90;;;0.70;;
7150;SDS011;3617;48.836;9.172;2023-09-19T10:35:51;3.67;;;0.73;;
7150;SDS011;3617;48.836;9.172;2023-09-19T10:38:17;1.30;;;0.60;;
7150;SDS011;3617;48.836;9.172;2023-09-19T10:40:51;0.95;;;0.70;;
7150;SDS011;3617;48.836;9.172;2023-09-19T10:43:17;1.88;;;0.80;;
7150;SDS011;3617;48.836;9.172;2023-09-19T10:45:44;1.40;;;0.80;;
7150;SDS011;3617;48.836;9.172;2023-09-19T10:48:11;1.23;;;0.65;;
7150;SDS011;3617;48.836;9.172;2023-09-19T10:53:14;1.20;;;0.70;;
7150;SDS011;3617;48.836;9.172;2023-09-19T10:55:40;0.80;;;0.80;;
7150;SDS011;3617;48.836;9.172;2023-09-19T10:58:08;0.50;;;0.47;;
7150;SDS011;3617;48.836;9.172;2023-09-19T11:00:49;1.00;;;0.77;;
7150;SDS011;3617;48.836;9.172;2023-09-19T11:03:17;1.73;;;0.77;;
7150;SDS011;3617;48.836;9.172;2023-09-19T11:05:59;1.40;;;0.70;;
7150;SDS011;3617;48.836;9.172;2023-09-19T11:08:25;1.52;;;0.80;;
7150;SDS011;3617;48.836;9.172;2023-09-19T11:10:52;0.63;;;0.57;;
7150;SDS011;3617;48.836;9.172;2023-09-19T11:13:31;1.13;;;0.70;;
7150;SDS011;3617;48.836;9.172;2023-09-19T11:26:47;0.70;;;0.60;;
7150;SDS011;3617;48.836;9.172;2023-09-19T11:29:29;0.63;;;0.60;;
7150;SDS011;3617;48.836;9.172;2023-09-19T11:31:56;1.05;;;0.60;;
7150;SDS011;3617;48.836;9.172;2023-09-19T11:37:03;1.27;;;0.90;;
7150;SDS011;3617;48.836;9.172;2023-09-19T11:39:29;1.38;;;0.70;;
7150;SDS011;3617;48.836;9.172;2023-09-19T11:41:56;1.88;;;1.20;;
7150;SDS011;3617;48.836;9.172;2023-09-19T11:49:17;0.73;;;0.70;;
7150;SDS011;3617;48.836;9.172;2023-09-19T11:51:48;1.45;;;0.70;;
7150;SDS011;3617;48.836;9.172;2023-09-19T11:54:16;0.52;;;0.52;;
7150;SDS011;3617;48.836;9.172;2023-09-19T11:56:54;1.60;;;0.82;;
7150;SDS011;3617;48.836;9.172;2023-09-19T11:59:20;0.93;;;0.60;;
7150;SDS011;3617;48.836;9.172;2023-09-19T12:01:53;1.95;;;0.80;;
7150;SDS011;3617;48.836;9.172;2023-09-19T12:04:33;3.78;;;1.05;;
7150;SDS011;3617;48.836;9.172;2023-09-19T12:07:02;1.77;;;0.80;;
7150;SDS011;3617;48.836;9.172;2023-09-19T12:09:29;0.80;;;0.68;;
7150;SDS011;3617;48.836;9.172;2023-09-19T12:11:55;0.77;;;0.63;;
7150;SDS011;3617;48.836;9.172;2023-09-19T12:14:22;1.00;;;0.70;;
7150;SDS011;3617;48.836;9.172;2023-09-19T12:16:54;1.63;;;0.70;;
7150;SDS011;3617;48.836;9.172;2023-09-19T12:19:21;0.60;;;0.60;;
7150;SDS011;3617;48.836;9.172;2023-09-19T12:21:57;1.08;;;0.68;;
7150;SDS011;3617;48.836;9.172;2023-09-19T12:24:24;2.08;;;1.00;;
7150;SDS011;3617;48.836;9.172;2023-09-19T12:26:51;1.02;;;0.70;;
7150;SDS011;3617;48.836;9.172;2023-09-19T12:29:19;1.70;;;0.80;;
7150;SDS011;3617;48.836;9.172;2023-09-19T12:31:52;3.03;;;1.15;;
7150;SDS011;3617;48.836;9.172;2023-09-19T12:34:21;0.90;;;0.70;;
7150;SDS011;3617;48.836;9.172;2023-09-19T12:36:48;1.73;;;0.80;;
7150;SDS011;3617;48.836;9.172;2023-09-19T12:39:23;0.73;;;0.60;;
7150;SDS011;3617;48.836;9.172;2023-09-19T12:41:50;1.13;;;0.70;;
7150;SDS011;3617;48.836;9.172;2023-09-19T12:44:18;1.10;;;0.95;;
7150;SDS011;3617;48.836;9.172;2023-09-19T12:46:44;1.42;;;0.80;;
7150;SDS011;3617;48.836;9.172;2023-09-19T12:49:19;0.40;;;0.40;;
7150;SDS011;3617;48.836;9.172;2023-09-19T12:51:46;0.63;;;0.63;;
7150;SDS011;3617;48.836;9.172;2023-09-19T12:54:12;0.70;;;0.68;;
7150;SDS011;3617;48.836;9.172;2023-09-19T12:56:41;0.75;;;0.60;;
7150;SDS011;3617;48.836;9.172;2023-09-19T12:59:09;0.50;;;0.50;;
7150;SDS011;3617;48.836;9.172;2023-09-19T13:01:38;1.25;;;0.80;;
7150;SDS011;3617;48.836;9.172;2023-09-19T13:04:19;1.23;;;0.75;;
7150;SDS011;3617;48.836;9.172;2023-09-19T13:06:53;1.00;;;0.63;;
7150;SDS011;3617;48.836;9.172;2023-09-19T13:09:20;1.65;;;0.90;;
7150;SDS011;3617;48.836;9.172;2023-09-19T13:11:46;3.78;;;0.90;;
7150;SDS011;3617;48.836;9.172;2023-09-19T13:14:24;0.68;;;0.60;;
7150;SDS011;3617;48.836;9.172;2023-09-19T13:16:53;0.95;;;0.70;;
7150;SDS011;3617;48.836;9.172;2023-09-19T13:22:02;0.70;;;0.60;;
7150;SDS011;3617;48.836;9.172;2023-09-19T13:24:28;1.58;;;0.77;;
7150;SDS011;3617;48.836;9.172;2023-09-19T13:26:56;1.67;;;0.90;;
7150;SDS011;3617;48.836;9.172;2023-09-19T13:29:22;0.95;;;0.60;;
7150;SDS011;3617;48.836;9.172;2023-09-19T13:31:51;1.65;;;0.70;;
7150;SDS011;3617;48.836;9.172;2023-09-19T13:34:18;1.15;;;1.02;;
7150;SDS011;3617;48.836;9.172;2023-09-19T13:36:45;0.93;;;0.70;;
7150;SDS011;3617;48.836;9.172;2023-09-19T13:39:15;0.80;;;0.70;;
7150;SDS011;3617;48.836;9.172;2023-09-19T13:41:41;1.08;;;0.55;;
7150;SDS011;3617;48.836;9.172;2023-09-19T13:44:08;1.45;;;0.93;;
7150;SDS011;3617;48.836;9.172;2023-09-19T13:46:35;1.00;;;0.80;;
7150;SDS011;3617;48.836;9.172;2023-09-19T13:49:02;0.80;;;0.70;;
7150;SDS011;3617;48.836;9.172;2023-09-19T13:51:31;1.40;;;0.90;;
7150;SDS011;3617;48.836;9.172;2023-09-19T13:53:57;1.70;;;0.80;;
7150;SDS011;3617;48.836;9.172;2023-09-19T13:56:24;1.55;;;0.77;;
7150;SDS011;3617;48.836;9.172;2023-09-19T13:58:52;0.93;;;0.80;;
7150;SDS011;3617;48.836;9.172;2023-09-19T14:01:18;3.03;;;0.70;;
7150;SDS011;3617;48.836;9.172;2023-09-19T14:03:44;1.95;;;1.05;;
7150;SDS011;3617;48.836;9.172;2023-09-19T14:06:16;1.38;;;0.75;;
7150;SDS011;3617;48.836;9.172;2023-09-19T14:08:42;1.05;;;0.90;;
7150;SDS011;3617;48.836;9.172;2023-09-19T14:11:09;1.52;;;1.00;;
7150;SDS011;3617;48.836;9.172;2023-09-19T14:13:35;2.95;;;0.88;;
7150;SDS011;3617;48.836;9.172;2023-09-19T14:16:05;1.13;;;0.70;;
7150;SDS011;3617;48.836;9.172;2023-09-19T14:18:31;0.63;;;0.63;;
7150;SDS011;3617;48.836;9.172;2023-09-19T14:20:57;1.25;;;0.90;;
7150;SDS011;3617;48.836;9.172;2023-09-19T14:23:23;0.90;;;0.73;;
7150;SDS011;3617;48.836;9.172;2023-09-19T14:25:51;1.50;;;0.80;;
7150;SDS011;3617;48.836;9.172;2023-09-19T14:28:18;2.17;;;0.80;;
7150;SDS011;3617;48.836;9.172;2023-09-19T14:30:45;1.30;;;1.05;;
7150;SDS011;3617;48.836;9.172;2023-09-19T14:33:11;1.00;;;0.80;;
7150;SDS011;3617;48.836;9.172;2023-09-19T14:35:37;1.67;;;1.08;;
7150;SDS011;3617;48.836;9.172;2023-09-19T14:38:03;1.45;;;0.82;;
7150;SDS011;3617;48.836;9.172;2023-09-19T14:40:29;0.85;;;0.80;;
7150;SDS011;3617;48.836;9.172;2023-09-19T14:42:56;1.30;;;0.68;;
7150;SDS011;3617;48.836;9.172;2023-09-19T14:45:22;0.82;;;0.77;;
7150;SDS011;3617;48.836;9.172;2023-09-19T14:47:48;1.50;;;1.02;;
7150;SDS011;3617;48.836;9.172;2023-09-19T14:50:16;0.93;;;0.90;;
7150;SDS011;3617;48.836;9.172;2023-09-19T14:52:42;1.02;;;0.90;;
7150;SDS011;3617;48.836;9.172;2023-09-19T14:55:09;0.77;;;0.73;;
7150;SDS011;3617;48.836;9.172;2023-09-19T14:57:39;0.90;;;0.80;;
7150;SDS011;3617;48.836;9.172;2023-09-19T15:00:05;1.02;;;0.70;;
7150;SDS011;3617;48.836;9.172;2023-09-19T15:02:36;2.10;;;0.77;;
7150;SDS011;3617;48.836;9.172;2023-09-19T15:05:02;1.08;;;0.80;;
7150;SDS011;3617;48.836;9.172;2023-09-19T15:07:28;1.15;;;0.70;;
7150;SDS011;3617;48.836;9.172;2023-09-19T15:09:54;1.08;;;0.77;;
7150;SDS011;3617;48.836;9.172;2023-09-19T15:12:20;1.27;;;0.80;;
7150;SDS011;3617;48.836;9.172;2023-09-19T15:14:46;1.00;;;0.70;;
7150;SDS011;3617;48.836;9.172;2023-09-19T15:17:12;1.58;;;0.93;;
7150;SDS011;3617;48.836;9.172;2023-09-19T15:19:39;0.50;;;0.50;;
7150;SDS011;3617;48.836;9.172;2023-09-19T15:22:05;0.57;;;0.57;;
7150;SDS011;3617;48.836;9.172;2023-09-19T15:24:31;1.27;;;0.70;;
7150;SDS011;3617;48.836;9.172;2023-09-19T15:26:57;0.80;;;0.70;;
7150;SDS011;3617;48.836;9.172;2023-09-19T15:29:23;1.85;;;0.90;;
7150;SDS011;3617;48.836;9.172;2023-09-19T15:31:49;1.38;;;0.80;;
7150;SDS011;3617;48.836;9.172;2023-09-19T15:34:14;0.80;;;0.68;;
7150;SDS011;3617;48.836;9.172;2023-09-19T15:36:41;0.73;;;0.60;;
7150;SDS011;3617;48.836;9.172;2023-09-19T15:39:08;0.60;;;0.60;;
7150;SDS011;3617;48.836;9.172;2023-09-19T15:41:40;0.70;;;0.50;;
7150;SDS011;3617;48.836;9.172;2023-09-19T15:44:16;0.70;;;0.70;;
7150;SDS011;3617;48.836;9.172;2023-09-19T15:46:42;1.73;;;0.60;;
7150;SDS011;3617;48.836;9.172;2023-09-19T15:49:10;1.65;;;0.98;;
7150;SDS011;3617;48.836;9.172;2023-09-19T15:51:36;1.10;;;0.60;;
7150;SDS011;3617;48.836;9.172;2023-09-19T15:54:20;1.10;;;0.80;;
7150;SDS011;3617;48.836;9.172;2023-09-19T15:56:47;0.80;;;0.77;;
7150;SDS011;3617;48.836;9.172;2023-09-19T15:59:13;1.58;;;0.90;;
7150;SDS011;3617;48.836;9.172;2023-09-19T16:01:43;3.35;;;2.10;;
7150;SDS011;3617;48.836;9.172;2023-09-19T16:04:09;0.80;;;0.80;;
7150;SDS011;3617;48.836;9.172;2023-09-19T16:06:36;0.50;;;0.50;;